Time;durP1;ratioP1;P1;durP2;ratioP2;P2;SDS_P1;SDS_P2;PMS_P1;PMS_P2;Temp;Humidity;BMP_temperature;BMP_pressure;BME280_temperature;BME280_humidity;BME280_pressure;Samples;Min_cycle;Max_cycle;Signal;HPM_P1;HPM_P2
2021/03/19 04:13:27;;;;;;;6.18;1.80;;;-9.10;83.90;;;;;;5092028;28;20114;-65
2021/03/19 04:15:53;;;;;;;5.97;1.73;;;-9.10;83.70;;;;;;5092866;28;20020;-65
2021/03/19 04:18:20;;;;;;;2.03;1.30;;;-9.00;83.00;;;;;;5092496;28;20028;-65
2021/03/19 04:20:48;;;;;;;3.60;1.83;;;-8.90;81.90;;;;;;5092778;28;20032;-65
2021/03/19 04:23:14;;;;;;;4.55;1.80;;;-8.80;80.80;;;;;;5092486;28;20024;-65
2021/03/19 04:25:40;;;;;;;5.78;1.90;;;-8.80;80.00;;;;;;5092537;28;20040;-65
2021/03/19 04:28:10;;;;;;;4.13;1.83;;;-8.80;78.80;;;;;;5092652;28;20114;-65
2021/03/19 04:30:42;;;;;;;3.65;1.85;;;-8.70;78.00;;;;;;5092608;28;20028;-65
2021/03/19 04:33:10;;;;;;;5.75;1.77;;;-8.90;78.30;;;;;;5092329;28;20510;-65
2021/03/19 04:35:35;;;;;;;5.10;1.45;;;-9.00;79.50;;;;;;5092710;28;20085;-65
2021/03/19 04:38:10;;;;;;;4.57;1.58;;;-9.10;80.50;;;;;;5092332;28;20032;-65
2021/03/19 04:40:41;;;;;;;1.83;1.40;;;-9.30;81.20;;;;;;5092697;28;20116;-65
2021/03/19 04:43:07;;;;;;;4.85;1.70;;;-9.40;82.40;;;;;;5092495;28;20024;-66
2021/03/19 04:45:37;;;;;;;2.97;1.15;;;-9.50;83.10;;;;;;5092245;28;20035;-65
2021/03/19 04:48:03;;;;;;;4.65;1.65;;;-9.60;84.60;;;;;;5092053;28;20553;-64
2021/03/19 04:50:29;;;;;;;2.88;1.67;;;-9.70;85.70;;;;;;5092379;28;20203;-64
2021/03/19 04:52:55;;;;;;;3.97;1.60;;;-9.70;85.70;;;;;;5092236;28;20610;-64
2021/03/19 04:55:20;;;;;;;2.05;1.45;;;-9.70;86.20;;;;;;5092149;28;20016;-64
2021/03/19 04:57:46;;;;;;;3.75;1.80;;;-9.80;87.30;;;;;;5092253;28;20047;-65
2021/03/19 05:00:14;;;;;;;2.55;1.38;;;-9.90;86.60;;;;;;5092189;28;20028;-64
2021/03/19 05:02:44;;;;;;;4.93;1.63;;;-9.90;87.10;;;;;;5073905;28;20024;-65
2021/03/19 05:05:14;;;;;;;4.63;1.63;;;-9.90;86.90;;;;;;5091880;28;20028;-65
2021/03/19 05:07:40;;;;;;;8.05;1.70;;;-9.80;87.30;;;;;;5092102;28;20036;-65
2021/03/19 05:10:07;;;;;;;5.43;2.00;;;-9.70;87.30;;;;;;5092229;28;20051;-64
2021/03/19 05:12:33;;;;;;;3.05;1.73;;;-9.40;86.70;;;;;;5092409;28;20035;-66
2021/03/19 05:14:59;;;;;;;3.80;1.40;;;-9.40;84.60;;;;;;5091915;28;20055;-66
2021/03/19 05:17:24;;;;;;;2.88;1.48;;;-9.30;84.00;;;;;;5092398;28;20066;-66
2021/03/19 05:19:50;;;;;;;3.25;1.42;;;-9.10;83.80;;;;;;5092138;28;20089;-66
2021/03/19 05:22:16;;;;;;;3.03;1.85;;;-8.80;83.10;;;;;;5091899;28;20066;-66
2021/03/19 05:24:42;;;;;;;5.30;1.80;;;-8.40;81.70;;;;;;5092087;28;20422;-66
2021/03/19 05:27:08;;;;;;;1.92;1.60;;;-8.10;80.20;;;;;;5092177;28;20027;-66
2021/03/19 05:29:34;;;;;;;1.50;1.40;;;-7.90;79.00;;;;;;5091873;28;20439;-65
2021/03/19 05:31:59;;;;;;;5.13;1.77;;;-7.70;77.80;;;;;;5091899;28;20058;-65
2021/03/19 05:34:25;;;;;;;2.78;1.70;;;-7.60;77.10;;;;;;5092078;28;20022;-68
2021/03/19 05:36:51;;;;;;;2.50;1.50;;;-7.40;76.70;;;;;;5091811;28;20624;-70
2021/03/19 05:39:17;;;;;;;4.43;1.92;;;-7.20;76.10;;;;;;5091710;28;20016;-71
2021/03/19 05:41:44;;;;;;;5.80;1.67;;;-6.70;82.90;;;;;;5091723;28;20379;-71
2021/03/19 05:44:17;;;;;;;3.70;1.73;;;-6.00;82.60;;;;;;5091568;28;20039;-84
2021/03/19 05:46:49;;;;;;;7.55;1.98;;;-5.90;75.10;;;;;;5091741;28;20036;-71
2021/03/19 05:49:27;;;;;;;4.88;1.88;;;-5.90;73.00;;;;;;5091615;28;20024;-70
2021/03/19 05:51:57;;;;;;;5.90;1.70;;;-5.80;71.90;;;;;;5091906;28;20024;-73
2021/03/19 05:54:31;;;;;;;4.22;1.83;;;-5.90;71.50;;;;;;5091287;28;20024;-70
2021/03/19 05:57:08;;;;;;;6.60;1.83;;;-6.00;71.00;;;;;;5089593;28;20016;-70
2021/03/19 05:59:46;;;;;;;2.45;1.90;;;-6.10;70.90;;;;;;5088307;28;20020;-71
2021/03/19 06:02:19;;;;;;;6.40;1.80;;;-6.20;71.20;;;;;;5088211;28;20024;-68
2021/03/19 06:05:18;;;;;;;3.28;1.90;;;-6.30;71.30;;;;;;5088935;28;20039;-68
2021/03/19 06:07:48;;;;;;;5.68;1.75;;;-6.30;71.60;;;;;;5079463;28;20036;-71
2021/03/19 06:10:22;;;;;;;8.25;1.70;;;-6.40;71.60;;;;;;5090599;28;20023;-71
2021/03/19 06:12:49;;;;;;;6.63;1.60;;;-6.50;71.70;;;;;;5088776;28;20069;-71
2021/03/19 06:15:31;;;;;;;14.60;1.80;;;-6.60;72.00;;;;;;5089964;28;20444;-72
2021/03/19 06:18:01;;;;;;;5.43;1.55;;;-6.70;72.30;;;;;;5088898;28;20008;-71
2021/03/19 06:20:27;;;;;;;3.53;1.80;;;-6.80;72.80;;;;;;5091568;28;20024;-71
2021/03/19 06:23:13;;;;;;;5.43;1.63;;;-6.90;73.20;;;;;;5094361;28;20081;-69
2021/03/19 06:25:42;;;;;;;4.38;1.48;;;-6.90;73.40;;;;;;5074491;28;20093;-68
2021/03/19 06:28:31;;;;;;;4.25;1.80;;;-7.00;73.40;;;;;;5074643;28;20035;-70
2021/03/19 06:31:16;;;;;;;4.63;1.95;;;-7.10;73.90;;;;;;5090214;28;20022;-70
2021/03/19 06:33:42;;;;;;;7.00;2.70;;;-6.90;79.60;;;;;;5083931;28;20020;-72
2021/03/19 06:36:18;;;;;;;6.22;1.75;;;-7.00;76.00;;;;;;5094855;28;20353;-71
2021/03/19 06:39:05;;;;;;;3.28;1.65;;;-7.10;75.30;;;;;;5095035;28;20028;-71
2021/03/19 06:41:32;;;;;;;1.88;1.52;;;-7.10;75.30;;;;;;5094871;28;20031;-71
2021/03/19 06:44:16;;;;;;;2.83;1.58;;;-7.20;75.10;;;;;;5094667;28;20028;-71
2021/03/19 06:46:54;;;;;;;3.22;1.58;;;-7.20;75.20;;;;;;5094696;28;20073;-71
2021/03/19 06:49:23;;;;;;;5.78;1.90;;;-7.30;75.60;;;;;;5094240;28;20055;-71
2021/03/19 06:51:54;;;;;;;6.20;1.48;;;-7.20;75.70;;;;;;5094395;28;20032;-71
2021/03/19 06:54:24;;;;;;;4.95;1.90;;;-7.30;76.60;;;;;;5094570;28;20032;-71
2021/03/19 06:57:12;;;;;;;9.88;1.80;;;-7.30;76.00;;;;;;5094610;28;20024;-71
2021/03/19 06:59:45;;;;;;;1.80;1.52;;;-7.20;75.90;;;;;;5094589;28;20047;-71
2021/03/19 07:02:41;;;;;;;2.35;1.20;;;-7.20;75.90;;;;;;5094046;28;20023;-71
2021/03/19 07:05:31;;;;;;;1.48;1.38;;;-7.00;97.80;;;;;;5094072;28;20035;-69
2021/03/19 07:08:15;;;;;;;1.77;1.40;;;-4.80;99.90;;;;;;5094374;28;20046;-70
2021/03/19 07:11:11;;;;;;;9.15;1.92;;;-2.40;99.90;;;;;;5090873;28;20024;-71
2021/03/19 07:14:00;;;;;;;4.97;2.00;;;-3.80;78.20;;;;;;5092953;28;20036;-68
2021/03/19 07:16:59;;;;;;;4.30;1.58;;;-5.00;73.40;;;;;;5091530;28;20115;-69
2021/03/19 07:19:34;;;;;;;4.40;1.67;;;-5.70;73.20;;;;;;5093692;28;20448;-69
2021/03/19 07:22:07;;;;;;;6.13;1.80;;;-6.00;73.50;;;;;;5093855;28;20036;-68
2021/03/19 07:24:54;;;;;;;5.53;2.28;;;-6.30;74.10;;;;;;5093937;28;20024;-69
2021/03/19 07:27:52;;;;;;;8.82;1.73;;;-6.50;74.30;;;;;;5094017;28;20063;-70
2021/03/19 07:30:42;;;;;;;9.68;1.70;;;-6.60;74.50;;;;;;5089264;28;20043;-70
2021/03/19 07:33:26;;;;;;;3.97;1.77;;;-6.80;74.80;;;;;;5093561;28;20031;-70
2021/03/19 07:35:55;;;;;;;5.13;1.60;;;-6.80;75.00;;;;;;5093940;28;20063;-69
2021/03/19 07:38:38;;;;;;;4.13;1.83;;;-6.90;75.00;;;;;;5093642;28;20024;-69
2021/03/19 07:41:07;;;;;;;9.15;1.60;;;-6.90;75.20;;;;;;5093477;28;20537;-68
2021/03/19 07:44:31;;;;;;;6.03;1.92;;;-6.90;75.10;;;;;;5093269;28;20028;-69
2021/03/19 07:47:15;;;;;;;5.22;1.77;;;-7.00;75.30;;;;;;5059734;28;20499;-69
2021/03/19 07:49:41;;;;;;;5.80;1.70;;;-6.90;75.50;;;;;;5093414;28;20426;-69
2021/03/19 07:52:21;;;;;;;5.72;1.90;;;-6.80;75.50;;;;;;5093365;28;20027;-69
2021/03/19 07:54:49;;;;;;;4.70;1.60;;;-6.80;75.70;;;;;;5093088;28;20034;-68
2021/03/19 07:57:49;;;;;;;6.85;1.85;;;-6.80;75.70;;;;;;5074960;28;20028;-68
2021/03/19 08:00:33;;;;;;;3.97;1.50;;;-6.80;76.00;;;;;;5063782;28;20052;-68
2021/03/19 08:03:17;;;;;;;9.52;2.10;;;-6.60;76.40;;;;;;5093224;28;20024;-68
2021/03/19 08:05:51;;;;;;;8.65;1.40;;;-6.50;76.40;;;;;;5093143;28;20082;-69
2021/03/19 08:08:42;;;;;;;7.97;1.75;;;-6.40;76.20;;;;;;5090523;28;20020;-68
2021/03/19 08:11:19;;;;;;;3.60;1.70;;;-6.40;75.90;;;;;;5092444;28;20062;-68
2021/03/19 08:14:09;;;;;;;11.57;1.70;;;-6.30;75.70;;;;;;5091674;28;20107;-69
2021/03/19 08:17:07;;;;;;;9.90;1.73;;;-6.20;75.80;;;;;;5089960;28;20073;-67
2021/03/19 08:19:45;;;;;;;7.85;1.60;;;-6.10;76.10;;;;;;5090490;28;20036;-69
2021/03/19 08:22:33;;;;;;;1.95;1.50;;;-6.00;75.90;;;;;;5092341;28;20472;-68
2021/03/19 08:25:13;;;;;;;4.85;1.60;;;-6.00;75.50;;;;;;5091935;28;20571;-69
2021/03/19 08:27:39;;;;;;;;;;;-5.80;76.00;;;;;;5092493;28;20032;-69
2021/03/19 08:30:32;;;;;;;7.03;1.83;;;-5.70;76.20;;;;;;5092332;28;20379;-65
2021/03/19 08:33:07;;;;;;;5.60;1.70;;;-5.50;75.20;;;;;;5091846;28;20047;-68
2021/03/19 08:35:58;;;;;;;3.10;1.58;;;-5.40;74.50;;;;;;5090723;28;20050;-69
2021/03/19 08:38:28;;;;;;;;;;;-5.30;74.50;;;;;;5077352;28;20040;-70
2021/03/19 08:41:21;;;;;;;11.38;2.47;;;-5.10;74.50;;;;;;5091782;28;19915;-70
2021/03/19 08:43:59;;;;;;;7.97;2.28;;;-5.00;74.40;;;;;;5089250;28;20375;-67
2021/03/19 08:46:39;;;;;;;9.57;2.45;;;-4.90;73.90;;;;;;5092237;28;20035;-76
2021/03/19 08:49:25;;;;;;;4.43;1.60;;;-4.70;78.10;;;;;;5091784;28;20085;-71
2021/03/19 08:51:54;;;;;;;13.85;2.05;;;-3.90;99.90;;;;;;5077932;28;20122;-71
2021/03/19 08:54:31;;;;;;;13.18;3.58;;;-2.40;99.90;;;;;;5091927;28;20089;-71
2021/03/19 08:57:08;;;;;;;6.95;1.95;;;-2.50;81.10;;;;;;5093384;28;20034;-71
2021/03/19 08:59:34;;;;;;;2.53;1.40;;;-3.00;74.80;;;;;;5092285;28;20028;-72
2021/03/19 09:02:24;;;;;;;7.28;1.95;;;-3.20;73.80;;;;;;5092065;28;20034;-71
2021/03/19 09:04:52;;;;;;;15.35;2.28;;;-3.40;73.70;;;;;;5091792;28;20036;-72
2021/03/19 09:07:25;;;;;;;8.98;1.80;;;-3.40;74.20;;;;;;5091937;28;20073;-71
2021/03/19 09:09:52;;;;;;;6.22;1.67;;;-3.40;73.40;;;;;;5092245;28;20062;-72
2021/03/19 09:12:25;;;;;;;5.35;1.67;;;-3.40;72.90;;;;;;5091949;28;20027;-72
2021/03/19 09:14:56;;;;;;;6.68;1.73;;;-3.40;72.70;;;;;;5091838;28;20048;-71
2021/03/19 09:17:43;;;;;;;5.30;1.60;;;-3.40;72.40;;;;;;5091814;28;20414;-72
2021/03/19 09:20:37;;;;;;;5.20;1.85;;;-3.50;72.30;;;;;;5092226;28;20028;-71
2021/03/19 09:23:23;;;;;;;10.85;2.00;;;-3.50;72.20;;;;;;5091986;28;20102;-72
2021/03/19 09:25:54;;;;;;;11.90;2.33;;;-3.40;72.30;;;;;;5091190;28;20090;-72
2021/03/19 09:28:56;;;;;;;7.60;2.72;;;-3.40;71.80;;;;;;5091318;28;20032;-72
2021/03/19 09:31:25;;;;;;;11.80;1.75;;;-1.50;99.90;;;;;;5091338;28;20040;-73
2021/03/19 09:33:51;;;;;;;8.68;2.70;;;-1.00;87.90;;;;;;5091289;28;20100;-73
2021/03/19 09:36:54;;;;;;;6.53;2.08;;;-1.50;73.10;;;;;;5091586;28;20112;-74
2021/03/19 09:39:55;;;;;;;6.60;1.65;;;-1.80;71.00;;;;;;5091567;28;20038;-74
2021/03/19 09:42:21;;;;;;;5.53;1.58;;;-2.00;70.90;;;;;;5070525;28;20630;-75
2021/03/19 09:44:49;;;;;;;9.00;1.60;;;-2.10;73.00;;;;;;5090891;28;20028;-70
2021/03/19 09:47:17;;;;;;;7.05;1.80;;;-1.20;97.50;;;;;;5092337;28;20016;-68
2021/03/19 09:49:43;;;;;;;5.65;1.63;;;-1.00;78.70;;;;;;5091478;28;20525;-67
2021/03/19 09:52:20;;;;;;;11.68;1.90;;;-1.20;72.90;;;;;;5091960;28;20109;-68
2021/03/19 09:54:47;;;;;;;14.90;2.00;;;-1.40;72.60;;;;;;5093394;28;20463;-69
2021/03/19 09:57:23;;;;;;;4.85;1.63;;;-1.40;72.30;;;;;;5094758;28;20023;-68
2021/03/19 09:59:55;;;;;;;6.93;2.05;;;-1.50;71.70;;;;;;5094638;28;20031;-68
2021/03/19 10:02:28;;;;;;;11.25;1.80;;;-1.50;71.50;;;;;;5094668;28;20027;-67
2021/03/19 10:05:05;;;;;;;5.63;1.52;;;-1.50;71.30;;;;;;5093323;28;20028;-68
2021/03/19 10:07:31;;;;;;;4.75;1.65;;;-1.60;71.60;;;;;;5093730;28;20035;-69
2021/03/19 10:09:58;;;;;;;9.13;1.80;;;-1.50;71.40;;;;;;5094642;28;20113;-67
2021/03/19 10:12:28;;;;;;;18.50;2.50;;;-1.50;70.60;;;;;;5094359;28;20510;-68
2021/03/19 10:14:55;;;;;;;;;;;-1.60;69.90;;;;;;5094776;28;20107;-67
2021/03/19 10:17:31;;;;;;;16.40;2.17;;;-1.50;70.90;;;;;;5094191;28;20045;-69
2021/03/19 10:20:12;;;;;;;12.15;2.22;;;-1.40;71.40;;;;;;5094628;28;20023;-69
2021/03/19 10:22:45;;;;;;;19.85;5.13;;;-1.40;71.90;;;;;;5098095;28;20024;-68
2021/03/19 10:25:32;;;;;;;21.50;2.30;;;-1.30;71.90;;;;;;5095419;28;20043;-67
2021/03/19 10:28:02;;;;;;;10.05;1.88;;;-1.30;71.70;;;;;;5076659;28;20032;-68
2021/03/19 10:30:35;;;;;;;39.15;2.33;;;-1.20;72.50;;;;;;5094813;28;20020;-69
2021/03/19 10:33:14;;;;;;;42.97;2.35;;;-1.10;73.00;;;;;;5076529;28;20035;-69
2021/03/19 10:35:58;;;;;;;16.25;2.15;;;-1.10;73.00;;;;;;5094872;28;20111;-69
2021/03/19 10:38:36;;;;;;;10.27;2.05;;;-1.00;72.80;;;;;;5094623;28;20016;-69
2021/03/19 10:41:35;;;;;;;13.13;1.48;;;-1.00;71.10;;;;;;5094510;28;20028;-69
2021/03/19 10:44:30;;;;;;;5.68;1.63;;;-0.90;71.30;;;;;;5068416;28;20071;-69
2021/03/19 10:47:19;;;;;;;8.05;1.63;;;-1.00;70.90;;;;;;5094627;28;20388;-69
2021/03/19 10:49:59;;;;;;;5.05;1.35;;;-1.00;70.90;;;;;;5094532;28;20035;-69
2021/03/19 10:52:28;;;;;;;7.03;1.27;;;-0.90;70.50;;;;;;5094400;28;20027;-69
2021/03/19 10:54:55;;;;;;;5.57;1.42;;;-1.00;70.00;;;;;;5094520;28;20449;-69
2021/03/19 10:57:24;;;;;;;2.97;1.40;;;-0.90;70.20;;;;;;5076766;28;20024;-70
2021/03/19 10:59:51;;;;;;;4.35;1.67;;;-0.90;70.50;;;;;;5094165;28;20552;-68
2021/03/19 11:02:24;;;;;;;2.78;1.42;;;-0.90;70.20;;;;;;5093481;28;20042;-68
2021/03/19 11:04:58;;;;;;;6.75;1.67;;;-0.90;69.90;;;;;;5093748;28;20039;-68
2021/03/19 11:07:27;;;;;;;4.22;1.63;;;-0.80;70.20;;;;;;5093309;28;20031;-67
2021/03/19 11:10:19;;;;;;;5.03;1.70;;;-0.80;69.90;;;;;;5094092;28;20032;-67
2021/03/19 11:13:11;;;;;;;12.63;1.80;;;-0.70;70.00;;;;;;5074018;28;20115;-67
2021/03/19 11:15:41;;;;;;;8.23;1.65;;;-0.70;70.10;;;;;;5084759;28;20139;-67
2021/03/19 11:18:20;;;;;;;8.07;1.60;;;-0.60;70.00;;;;;;5105857;28;20471;-67
2021/03/19 11:20:49;;;;;;;5.40;1.58;;;-0.50;69.90;;;;;;5093050;28;20069;-68
2021/03/19 11:23:35;;;;;;;1.65;1.13;;;-0.50;69.30;;;;;;5093402;28;20023;-66
2021/03/19 11:26:15;;;;;;;7.03;1.48;;;-0.50;68.70;;;;;;5093110;28;20554;-67
2021/03/19 11:28:43;;;;;;;6.13;1.45;;;-0.50;68.80;;;;;;5093484;28;20036;-71
2021/03/19 11:31:29;;;;;;;9.38;1.25;;;-0.50;68.90;;;;;;5075094;28;20112;-65
2021/03/19 11:33:54;;;;;;;4.10;1.40;;;-0.20;85.80;;;;;;5092420;28;20067;-65
2021/03/19 11:36:21;;;;;;;5.75;1.48;;;0.20;90.80;;;;;;5092131;28;20104;-65
2021/03/19 11:38:47;;;;;;;11.07;1.70;;;0.50;90.50;;;;;;5092891;28;20024;-65
2021/03/19 11:41:35;;;;;;;2.30;1.20;;;0.80;91.80;;;;;;5092788;28;20089;-65
2021/03/19 11:44:01;;;;;;;8.90;1.98;;;1.10;78.30;;;;;;5084515;28;20028;-64
2021/03/19 11:46:29;;;;;;;12.30;1.73;;;1.20;83.20;;;;;;5093108;28;20126;-64
2021/03/19 11:48:55;;;;;;;3.30;1.13;;;1.40;83.80;;;;;;5092812;28;20107;-64
2021/03/19 11:51:31;;;;;;;7.60;1.42;;;1.70;76.20;;;;;;5092671;28;20483;-64
2021/03/19 11:53:59;;;;;;;6.18;1.20;;;1.70;71.70;;;;;;5092852;28;20427;-64
2021/03/19 11:56:25;;;;;;;11.25;1.60;;;1.60;69.40;;;;;;5092553;28;20020;-64
2021/03/19 11:58:51;;;;;;;4.18;1.42;;;1.60;68.00;;;;;;5092822;28;20046;-64
2021/03/19 12:01:17;;;;;;;4.70;1.42;;;1.70;68.30;;;;;;5074567;28;20479;-64
2021/03/19 12:04:03;;;;;;;3.38;0.98;;;1.60;67.30;;;;;;5092968;28;20082;-64
2021/03/19 12:06:31;;;;;;;9.20;1.40;;;1.60;66.30;;;;;;5092495;28;20479;-64
2021/03/19 12:08:57;;;;;;;4.85;1.17;;;1.70;67.10;;;;;;5092855;28;20024;-64
2021/03/19 12:11:43;;;;;;;5.82;1.58;;;1.60;64.30;;;;;;5092891;28;20467;-64
2021/03/19 12:14:24;;;;;;;11.73;1.45;;;1.70;69.40;;;;;;5092383;28;20040;-64
2021/03/19 12:16:50;;;;;;;4.18;0.93;;;2.00;68.70;;;;;;5092314;28;20020;-64
2021/03/19 12:19:18;;;;;;;5.50;1.20;;;2.00;66.70;;;;;;5092132;28;20034;-64
2021/03/19 12:21:44;;;;;;;10.77;1.25;;;2.20;68.00;;;;;;5092302;28;20042;-64
2021/03/19 12:24:10;;;;;;;4.53;1.42;;;2.10;64.30;;;;;;5092301;28;20024;-64
2021/03/19 12:26:36;;;;;;;17.75;2.20;;;2.10;65.80;;;;;;5091976;28;20042;-64
2021/03/19 12:29:01;;;;;;;5.90;1.25;;;2.00;61.60;;;;;;5092267;28;20043;-64
2021/03/19 12:31:27;;;;;;;3.17;1.45;;;1.80;61.50;;;;;;5092130;28;20475;-64
2021/03/19 12:33:53;;;;;;;11.23;1.70;;;1.70;62.30;;;;;;5092438;28;20035;-64
2021/03/19 12:36:19;;;;;;;10.75;1.20;;;1.90;65.70;;;;;;5092181;28;20043;-66
2021/03/19 12:38:45;;;;;;;6.75;1.67;;;1.80;60.20;;;;;;5091857;28;20059;-66
2021/03/19 12:41:11;;;;;;;4.03;1.20;;;1.50;59.80;;;;;;5092216;28;20016;-67
2021/03/19 12:43:40;;;;;;;10.00;1.30;;;1.30;60.10;;;;;;5091928;28;20052;-67
2021/03/19 12:46:06;;;;;;;2.33;1.00;;;1.10;60.40;;;;;;5091895;28;20387;-68
2021/03/19 12:48:32;;;;;;;9.88;1.17;;;1.30;65.10;;;;;;5091526;28;20077;-68
2021/03/19 12:50:58;;;;;;;11.80;1.40;;;3.30;99.60;;;;;;5092006;28;20035;-67
2021/03/19 12:53:24;;;;;;;3.83;1.30;;;4.10;68.90;;;;;;5091981;28;20108;-70
2021/03/19 12:55:50;;;;;;;4.80;1.38;;;3.40;59.70;;;;;;5091102;28;20455;-68
2021/03/19 12:58:19;;;;;;;3.05;1.00;;;2.70;58.50;;;;;;5091581;28;20016;-68
2021/03/19 13:00:45;;;;;;;7.15;1.10;;;2.10;58.20;;;;;;5091494;28;20391;-68
2021/03/19 13:03:10;;;;;;;3.47;1.10;;;1.70;58.80;;;;;;5091863;28;20027;-68
2021/03/19 13:05:37;;;;;;;12.90;1.50;;;1.50;59.30;;;;;;5088719;28;20165;-68
2021/03/19 13:08:04;;;;;;;17.90;1.52;;;1.40;60.00;;;;;;5086327;28;20594;-68
2021/03/19 13:10:31;;;;;;;10.82;1.20;;;1.30;60.60;;;;;;5091390;28;20119;-68
2021/03/19 13:12:58;;;;;;;14.77;1.40;;;1.30;62.20;;;;;;5071536;28;20032;-66
2021/03/19 13:15:26;;;;;;;6.78;1.70;;;1.30;61.10;;;;;;5090065;28;20051;-66
2021/03/19 13:17:52;;;;;;;9.20;1.88;;;1.30;60.70;;;;;;5091488;28;20146;-66
2021/03/19 13:20:19;;;;;;;2.53;1.27;;;1.20;60.00;;;;;;5073521;28;20111;-67
2021/03/19 13:22:45;;;;;;;7.38;1.25;;;1.30;63.40;;;;;;5090903;28;20020;-66
2021/03/19 13:25:15;;;;;;;1.63;1.05;;;1.20;60.00;;;;;;5091241;28;20040;-66
2021/03/19 13:27:41;;;;;;;6.40;1.30;;;1.20;59.60;;;;;;5093034;28;20024;-66
2021/03/19 13:30:09;;;;;;;7.93;1.33;;;1.10;59.70;;;;;;5095121;28;20376;-66
2021/03/19 13:32:36;;;;;;;8.98;1.20;;;1.00;59.10;;;;;;5095593;28;20103;-66
2021/03/19 13:35:05;;;;;;;6.85;1.58;;;0.90;59.00;;;;;;5095555;28;20407;-66
2021/03/19 13:37:31;;;;;;;9.10;1.65;;;0.80;59.40;;;;;;5094931;28;20468;-68
2021/03/19 13:39:57;;;;;;;4.25;1.42;;;0.80;59.20;;;;;;5095405;28;20093;-66
2021/03/19 13:42:23;;;;;;;16.38;1.48;;;0.80;59.10;;;;;;5095408;28;20016;-69
2021/03/19 13:44:49;;;;;;;7.35;1.73;;;0.80;59.30;;;;;;5094960;28;20031;-68
2021/03/19 13:47:14;;;;;;;10.23;1.23;;;0.70;59.00;;;;;;5095358;28;20032;-68
2021/03/19 13:49:40;;;;;;;5.45;1.25;;;0.70;58.70;;;;;;5094556;28;20060;-67
2021/03/19 13:52:06;;;;;;;7.80;1.42;;;0.60;58.20;;;;;;5095456;28;20024;-68
2021/03/19 13:54:32;;;;;;;9.60;1.30;;;0.60;58.40;;;;;;5094842;28;20486;-67
2021/03/19 13:57:03;;;;;;;8.93;1.52;;;0.60;58.50;;;;;;5094894;28;20082;-68
2021/03/19 13:59:29;;;;;;;3.72;1.00;;;0.60;58.80;;;;;;5094929;28;20105;-67
2021/03/19 14:01:55;;;;;;;5.10;1.25;;;0.60;58.80;;;;;;5094878;28;20126;-68
2021/03/19 14:04:21;;;;;;;2.25;1.10;;;0.50;58.00;;;;;;5094568;28;20039;-68
2021/03/19 14:06:48;;;;;;;5.80;1.33;;;0.40;58.80;;;;;;5095025;28;20036;-68
2021/03/19 14:09:14;;;;;;;2.25;1.10;;;0.50;59.70;;;;;;5095143;28;20024;-68
2021/03/19 14:11:40;;;;;;;6.63;1.20;;;0.50;58.90;;;;;;5094253;28;20031;-68
2021/03/19 14:14:05;;;;;;;10.00;1.17;;;0.40;58.70;;;;;;5094104;28;20112;-68
2021/03/19 14:16:31;;;;;;;4.85;1.30;;;0.40;59.00;;;;;;5094261;28;20070;-68
2021/03/19 14:18:57;;;;;;;3.30;1.30;;;0.50;59.60;;;;;;5094001;28;20043;-68
2021/03/19 14:21:23;;;;;;;19.65;1.83;;;0.50;59.40;;;;;;5094228;28;20028;-69
2021/03/19 14:23:49;;;;;;;13.60;1.45;;;0.60;59.90;;;;;;5094175;28;20036;-69
2021/03/19 14:26:15;;;;;;;13.48;1.20;;;0.60;59.40;;;;;;5093914;28;20488;-68
2021/03/19 14:28:43;;;;;;;12.35;1.40;;;0.60;59.40;;;;;;5094288;28;20150;-70
2021/03/19 14:31:10;;;;;;;4.20;1.23;;;0.60;58.90;;;;;;5094565;28;20365;-70
2021/03/19 14:33:37;;;;;;;5.32;1.15;;;0.60;58.80;;;;;;5094289;28;20103;-71
2021/03/19 14:36:03;;;;;;;10.10;2.35;;;0.50;58.70;;;;;;5094707;28;20099;-70
2021/03/19 14:38:29;;;;;;;5.25;1.30;;;0.50;58.50;;;;;;5094321;28;20644;-70
2021/03/19 14:40:56;;;;;;;7.65;1.13;;;0.50;58.70;;;;;;5093272;28;20044;-71
2021/03/19 14:43:22;;;;;;;7.85;1.88;;;0.40;58.70;;;;;;5094358;28;20479;-70
2021/03/19 14:45:49;;;;;;;28.33;2.78;;;0.40;59.00;;;;;;5093927;28;20050;-69
2021/03/19 14:48:24;;;;;;;2.35;1.10;;;0.50;59.50;;;;;;5094306;28;20058;-69
2021/03/19 14:50:50;;;;;;;10.55;2.33;;;0.50;59.00;;;;;;5093677;28;20398;-69
2021/03/19 14:53:16;;;;;;;19.02;1.98;;;0.50;59.00;;;;;;5094151;28;20025;-68
2021/03/19 14:55:42;;;;;;;4.88;1.25;;;0.50;59.10;;;;;;5094014;28;20059;-68
2021/03/19 14:58:09;;;;;;;3.50;1.33;;;0.50;58.80;;;;;;5094160;28;20025;-66
2021/03/19 15:00:40;;;;;;;3.30;1.02;;;0.40;59.00;;;;;;5093968;28;20020;-66
2021/03/19 15:03:07;;;;;;;7.43;1.40;;;0.50;59.30;;;;;;5093983;28;20095;-66
2021/03/19 15:05:33;;;;;;;1.42;1.10;;;0.50;58.90;;;;;;5093752;28;20479;-66
2021/03/19 15:08:00;;;;;;;4.45;1.00;;;0.50;58.60;;;;;;5093594;28;20073;-66
2021/03/19 15:10:38;;;;;;;10.20;1.60;;;0.40;59.10;;;;;;5093962;28;20035;-67
2021/03/19 15:13:06;;;;;;;4.43;1.33;;;0.40;59.00;;;;;;5093387;28;20479;-66
2021/03/19 15:15:32;;;;;;;13.52;1.00;;;0.40;59.20;;;;;;5093314;28;20119;-66
2021/03/19 15:17:58;;;;;;;3.97;1.15;;;0.40;59.40;;;;;;5093182;28;20480;-65
2021/03/19 15:20:28;;;;;;;4.60;1.27;;;0.30;59.50;;;;;;5093027;28;20023;-67
2021/03/19 15:22:55;;;;;;;6.07;1.33;;;0.30;59.50;;;;;;5090693;28;20103;-66
2021/03/19 15:25:21;;;;;;;7.57;1.35;;;0.40;59.60;;;;;;5092851;28;20036;-67
2021/03/19 15:27:47;;;;;;;2.22;1.20;;;0.40;59.70;;;;;;5092988;28;20023;-66
2021/03/19 15:30:18;;;;;;;7.90;1.42;;;0.40;59.70;;;;;;5087715;28;20028;-70
2021/03/19 15:32:44;;;;;;;5.10;1.70;;;0.30;59.10;;;;;;5092973;28;20031;-67
2021/03/19 15:35:10;;;;;;;6.05;1.10;;;0.30;59.00;;;;;;5093111;28;20077;-67
2021/03/19 15:37:36;;;;;;;1.55;1.02;;;0.20;59.10;;;;;;5092623;28;20100;-67
2021/03/19 15:40:05;;;;;;;7.78;2.35;;;0.20;59.10;;;;;;5092724;28;20099;-68
2021/03/19 15:42:30;;;;;;;9.98;2.38;;;0.20;59.50;;;;;;5092661;28;20429;-67
2021/03/19 15:44:56;;;;;;;3.80;1.20;;;0.20;59.90;;;;;;5092613;28;20028;-66
2021/03/19 15:47:22;;;;;;;5.22;1.30;;;0.20;59.60;;;;;;5092776;28;20027;-67
2021/03/19 15:49:47;;;;;;;2.88;1.40;;;0.20;59.60;;;;;;5092214;28;20020;-67
2021/03/19 15:52:13;;;;;;;9.13;1.50;;;0.20;59.50;;;;;;5091826;28;20020;-67
2021/03/19 15:54:39;;;;;;;5.45;1.25;;;0.20;59.70;;;;;;5092233;28;20414;-67
2021/03/19 15:57:05;;;;;;;3.72;1.20;;;0.20;59.70;;;;;;5092418;28;20028;-68
2021/03/19 15:59:31;;;;;;;5.50;1.77;;;0.10;60.00;;;;;;5092376;28;20498;-68
2021/03/19 16:01:57;;;;;;;5.65;1.30;;;0.20;60.90;;;;;;5091808;28;20044;-67
2021/03/19 16:04:23;;;;;;;3.17;1.23;;;0.20;61.00;;;;;;5092609;28;20093;-68
2021/03/19 16:06:50;;;;;;;2.08;1.20;;;0.20;61.20;;;;;;5091934;28;20028;-67
2021/03/19 16:09:16;;;;;;;10.70;2.53;;;0.10;60.80;;;;;;5092307;28;20012;-67
2021/03/19 16:11:41;;;;;;;6.22;1.80;;;0.10;61.10;;;;;;5091746;28;20047;-67
2021/03/19 16:14:07;;;;;;;3.60;1.30;;;0.20;61.60;;;;;;5091832;28;20039;-67
2021/03/19 16:16:33;;;;;;;7.50;1.33;;;0.10;61.00;;;;;;5091615;28;20027;-67
2021/03/19 16:18:59;;;;;;;2.38;1.30;;;0.00;60.60;;;;;;5092416;28;20028;-69
2021/03/19 16:21:24;;;;;;;4.90;1.13;;;0.00;60.90;;;;;;5073977;28;20016;-68
2021/03/19 16:23:51;;;;;;;6.50;2.20;;;0.00;61.30;;;;;;5092202;28;20581;-70
2021/03/19 16:26:17;;;;;;;2.58;1.10;;;0.00;61.50;;;;;;5092412;28;20077;-69
2021/03/19 16:28:45;;;;;;;6.90;1.52;;;0.00;61.50;;;;;;5092187;28;20035;-72
2021/03/19 16:31:11;;;;;;;8.95;1.50;;;-0.10;61.70;;;;;;5092279;28;20111;-68
2021/03/19 16:33:37;;;;;;;11.20;2.92;;;0.50;76.10;;;;;;5091893;28;20472;-68
2021/03/19 16:36:05;;;;;;;6.78;1.60;;;0.70;69.60;;;;;;5092221;28;20114;-69
2021/03/19 16:38:35;;;;;;;9.13;1.50;;;0.60;63.80;;;;;;5091888;28;20495;-68
2021/03/19 16:41:04;;;;;;;15.07;2.40;;;0.50;62.90;;;;;;5091862;28;20483;-68
2021/03/19 16:43:32;;;;;;;3.30;1.23;;;0.40;62.80;;;;;;5073915;28;20032;-68
2021/03/19 16:45:59;;;;;;;2.58;1.45;;;0.30;62.60;;;;;;5073728;28;20040;-69
2021/03/19 16:48:26;;;;;;;5.45;1.30;;;0.30;63.00;;;;;;5073704;28;20024;-69
2021/03/19 16:50:52;;;;;;;6.85;1.40;;;0.30;62.40;;;;;;5091340;28;20028;-68
2021/03/19 16:53:21;;;;;;;5.18;1.50;;;0.30;63.00;;;;;;5091571;28;20051;-68
2021/03/19 16:55:48;;;;;;;6.53;1.52;;;0.20;63.30;;;;;;5091559;28;20024;-68
2021/03/19 16:58:15;;;;;;;11.38;1.65;;;0.20;63.60;;;;;;5091786;28;20091;-69
2021/03/19 17:00:43;;;;;;;28.92;2.92;;;0.20;63.70;;;;;;5091474;28;20040;-72
2021/03/19 17:03:18;;;;;;;7.90;1.73;;;0.40;68.70;;;;;;5091434;28;20476;-68
2021/03/19 17:05:45;;;;;;;47.58;3.25;;;0.40;65.10;;;;;;5090672;28;20036;-68
2021/03/19 17:08:12;;;;;;;5.40;1.30;;;0.30;64.20;;;;;;5090546;28;20088;-67
2021/03/19 17:10:41;;;;;;;2.55;1.15;;;0.30;64.10;;;;;;5091460;28;20020;-69
2021/03/19 17:13:08;;;;;;;7.40;2.58;;;0.20;63.70;;;;;;5090268;28;20513;-69
2021/03/19 17:15:35;;;;;;;5.22;1.48;;;0.20;63.90;;;;;;5091929;28;20035;-70
2021/03/19 17:18:02;;;;;;;3.10;1.23;;;0.20;64.40;;;;;;5091944;28;20039;-68
2021/03/19 17:20:30;;;;;;;4.93;1.20;;;0.20;64.30;;;;;;5091809;28;20020;-68
2021/03/19 17:22:57;;;;;;;5.63;1.25;;;0.10;64.30;;;;;;5091824;28;20483;-68
2021/03/19 17:25:28;;;;;;;6.32;1.60;;;0.10;64.90;;;;;;5073787;28;20085;-67
2021/03/19 17:27:55;;;;;;;2.40;1.38;;;0.10;65.90;;;;;;5092127;28;20391;-68